Time;durP1;ratioP1;P1;durP2;ratioP2;P2;SDS_P1;SDS_P2;PMS_P1;PMS_P2;Temp;Humidity;BMP_temperature;BMP_pressure;BME280_temperature;BME280_humidity;BME280_pressure;Samples;Min_cycle;Max_cycle;Signal;HPM_P1;HPM_P2
2022/01/10 00:02:05;;;;;;;;;46.25;35.75;;;;;;;;5100653;27;51275;-45
2022/01/10 00:04:50;;;;;;;;;42.25;33.00;;;;;;;;5100419;27;51015;-46
2022/01/10 00:07:35;;;;;;;;;40.75;33.00;;;;;;;;5100033;27;51104;-49
2022/01/10 00:10:19;;;;;;;;;46.50;35.50;;;;;;;;5100829;27;51150;-45
2022/01/10 00:13:03;;;;;;;;;44.50;37.00;;;;;;;;5100405;27;51003;-46
2022/01/10 00:15:47;;;;;;;;;47.50;35.75;;;;;;;;5100291;27;51687;-48
2022/01/10 00:18:32;;;;;;;;;43.25;33.25;;;;;;;;5100010;27;51118;-47
2022/01/10 00:21:16;;;;;;;;;49.25;34.75;;;;;;;;5100717;27;51040;-45
2022/01/10 00:24:01;;;;;;;;;44.75;35.75;;;;;;;;5099913;27;51084;-49
2022/01/10 00:26:45;;;;;;;;;44.25;34.75;;;;;;;;5099744;27;51250;-50
2022/01/10 00:29:30;;;;;;;;;43.75;34.75;;;;;;;;5100390;27;52012;-48
2022/01/10 00:32:14;;;;;;;;;37.25;32.00;;;;;;;;5100047;27;51069;-49
2022/01/10 00:34:59;;;;;;;;;43.00;34.25;;;;;;;;5100492;27;51173;-46
2022/01/10 00:37:44;;;;;;;;;39.50;31.00;;;;;;;;5099639;27;51495;-48
2022/01/10 00:40:28;;;;;;;;;46.00;36.00;;;;;;;;5100181;27;51584;-47
2022/01/10 00:43:18;;;;;;;;;48.50;38.00;;;;;;;;5099825;27;51148;-46
2022/01/10 00:46:03;;;;;;;;;41.50;33.50;;;;;;;;5100232;27;51064;-48
2022/01/10 00:48:48;;;;;;;;;38.50;32.75;;;;;;;;5099462;27;50996;-50
2022/01/10 00:51:33;;;;;;;;;47.75;35.00;;;;;;;;5100018;27;51027;-48
2022/01/10 00:54:17;;;;;;;;;43.25;33.25;;;;;;;;5100135;27;51690;-45
2022/01/10 00:57:01;;;;;;;;;35.75;32.25;;;;;;;;5099752;27;51111;-48
2022/01/10 00:59:46;;;;;;;;;45.25;35.00;;;;;;;;5099718;27;51070;-47
2022/01/10 01:02:32;;;;;;;;;42.50;34.00;;;;;;;;5099793;27;51152;-46
2022/01/10 01:05:17;;;;;;;;;46.75;33.25;;;;;;;;5099897;27;51094;-47
2022/01/10 01:08:06;;;;;;;;;44.75;32.50;;;;;;;;5099544;27;51076;-49
2022/01/10 01:11:22;;;;;;;;;36.75;32.75;;;;;;;;5098742;27;51223;-50
2022/01/10 01:14:09;;;;;;;;;44.50;35.00;;;;;;;;5099644;27;51344;-51
2022/01/10 01:17:09;;;;;;;;;44.50;33.50;;;;;;;;5099357;27;51176;-49
2022/01/10 01:25:43;;;;;;;;;44.50;33.00;;;;;;;;5099855;27;51122;-47
2022/01/10 01:28:28;;;;;;;;;38.75;33.75;;;;;;;;5099439;27;51108;-48
2022/01/10 01:31:12;;;;;;;;;43.25;33.50;;;;;;;;5099525;27;50965;-49
2022/01/10 01:33:57;;;;;;;;;43.50;34.00;;;;;;;;5088389;27;51213;-49
2022/01/10 01:36:45;;;;;;;;;44.75;36.00;;;;;;;;5083107;27;51024;-48
2022/01/10 01:39:31;;;;;;;;;46.50;35.00;;;;;;;;5082761;27;51489;-53
2022/01/10 01:42:32;;;;;;;;;41.00;33.25;;;;;;;;5082717;27;51521;-49
2022/01/10 01:45:17;;;;;;;;;45.25;35.25;;;;;;;;5096535;27;51153;-46
2022/01/10 01:48:01;;;;;;;;;42.50;32.00;;;;;;;;5102653;27;51157;-52
2022/01/10 01:50:47;;;;;;;;;43.25;32.00;;;;;;;;5103176;27;51065;-49
2022/01/10 01:53:31;;;;;;;;;39.75;33.25;;;;;;;;5103149;27;51118;-48
2022/01/10 01:56:16;;;;;;;;;43.75;33.00;;;;;;;;5103034;27;51588;-46
2022/01/10 01:59:00;;;;;;;;;43.25;34.50;;;;;;;;5102337;27;51050;-47
2022/01/10 02:01:45;;;;;;;;;45.25;37.00;;;;;;;;5103162;27;51007;-46
2022/01/10 02:04:29;;;;;;;;;43.75;35.50;;;;;;;;5102761;27;51063;-46
2022/01/10 02:07:15;;;;;;;;;47.25;38.75;;;;;;;;5102933;27;51244;-50
2022/01/10 02:09:59;;;;;;;;;52.50;41.00;;;;;;;;5102670;27;51323;-50
2022/01/10 02:12:44;;;;;;;;;58.50;45.50;;;;;;;;5102613;27;51182;-49
2022/01/10 02:15:41;;;;;;;;;54.00;42.50;;;;;;;;5102937;27;51102;-45
2022/01/10 02:18:26;;;;;;;;;62.25;48.75;;;;;;;;5102739;27;51123;-45
2022/01/10 02:21:10;;;;;;;;;59.25;45.75;;;;;;;;5102428;27;51051;-47
2022/01/10 02:23:54;;;;;;;;;66.75;52.25;;;;;;;;5102268;27;51158;-51
2022/01/10 02:26:39;;;;;;;;;67.75;51.50;;;;;;;;5103002;27;51093;-48
2022/01/10 02:29:23;;;;;;;;;66.75;51.75;;;;;;;;5102194;27;51055;-50
2022/01/10 02:32:07;;;;;;;;;70.25;55.50;;;;;;;;5102310;27;51167;-48
2022/01/10 02:34:52;;;;;;;;;64.50;52.00;;;;;;;;5102393;27;51621;-49
2022/01/10 02:37:36;;;;;;;;;68.25;53.75;;;;;;;;5102330;27;51070;-50
2022/01/10 02:40:23;;;;;;;;;67.50;50.50;;;;;;;;5101999;27;51153;-50
2022/01/10 02:43:08;;;;;;;;;64.00;49.50;;;;;;;;5101996;27;51588;-49
2022/01/10 02:45:54;;;;;;;;;67.25;51.00;;;;;;;;5084211;27;51085;-45
2022/01/10 02:48:39;;;;;;;;;68.25;51.50;;;;;;;;5081376;27;51024;-48
2022/01/10 02:51:24;;;;;;;;;67.50;49.50;;;;;;;;5081640;27;51260;-46
2022/01/10 02:54:08;;;;;;;;;64.00;50.75;;;;;;;;5081253;27;51001;-49
2022/01/10 02:56:55;;;;;;;;;60.75;47.75;;;;;;;;5081393;27;51132;-48
2022/01/10 02:59:40;;;;;;;;;62.75;48.50;;;;;;;;5095959;27;51101;-50
2022/01/10 03:02:28;;;;;;;;;67.25;51.75;;;;;;;;5101448;27;51107;-48
2022/01/10 03:05:12;;;;;;;;;61.25;48.75;;;;;;;;5101551;27;51210;-49
2022/01/10 03:07:58;;;;;;;;;61.50;45.50;;;;;;;;5101612;27;51091;-50
2022/01/10 03:10:43;;;;;;;;;63.25;44.50;;;;;;;;5101735;27;51081;-48
2022/01/10 03:13:27;;;;;;;;;60.50;45.75;;;;;;;;5091137;27;51045;-44
2022/01/10 03:16:12;;;;;;;;;62.25;47.75;;;;;;;;5081219;27;50974;-48
2022/01/10 03:18:56;;;;;;;;;63.00;47.25;;;;;;;;5080844;27;51048;-52
2022/01/10 03:21:40;;;;;;;;;59.50;44.50;;;;;;;;5081052;27;51076;-50
2022/01/10 03:24:25;;;;;;;;;64.50;47.00;;;;;;;;5080626;27;51833;-46
2022/01/10 03:27:09;;;;;;;;;62.75;47.25;;;;;;;;5091639;27;51100;-46
2022/01/10 03:29:54;;;;;;;;;58.00;45.75;;;;;;;;5080826;27;51246;-48
2022/01/10 03:32:38;;;;;;;;;61.00;46.00;;;;;;;;5080749;27;51066;-50
2022/01/10 03:35:23;;;;;;;;;57.50;44.75;;;;;;;;5080461;27;51633;-46
2022/01/10 03:38:07;;;;;;;;;61.00;47.00;;;;;;;;5080438;27;51089;-48
2022/01/10 03:40:52;;;;;;;;;65.25;48.25;;;;;;;;5080720;27;51041;-45
2022/01/10 03:43:36;;;;;;;;;64.00;49.75;;;;;;;;5100210;27;51443;-48
2022/01/10 03:46:21;;;;;;;;;59.50;47.00;;;;;;;;5090229;27;51171;-47
2022/01/10 03:49:05;;;;;;;;;60.50;44.75;;;;;;;;5080337;27;51340;-45
2022/01/10 03:51:50;;;;;;;;;60.50;46.25;;;;;;;;5080285;27;51048;-45
2022/01/10 03:54:34;;;;;;;;;59.25;46.75;;;;;;;;5099687;27;51040;-51
2022/01/10 03:57:19;;;;;;;;;62.50;48.25;;;;;;;;5099821;27;51038;-51
2022/01/10 04:00:06;;;;;;;;;62.25;45.75;;;;;;;;5094326;27;51034;-45
2022/01/10 04:03:00;;;;;;;;;56.00;45.25;;;;;;;;5093375;27;51079;-49
2022/01/10 04:05:44;;;;;;;;;58.25;47.50;;;;;;;;5085647;27;51098;-46
2022/01/10 04:08:29;;;;;;;;;59.50;46.00;;;;;;;;5100023;27;51554;-46
2022/01/10 04:11:13;;;;;;;;;58.25;44.25;;;;;;;;5100500;27;51052;-50
2022/01/10 04:13:58;;;;;;;;;64.00;46.00;;;;;;;;5100467;27;51586;-48
2022/01/10 04:16:42;;;;;;;;;59.50;47.00;;;;;;;;5100506;27;51116;-49
2022/01/10 04:19:26;;;;;;;;;63.50;47.50;;;;;;;;5099887;27;51188;-46
2022/01/10 04:22:11;;;;;;;;;61.00;45.75;;;;;;;;5100277;27;51048;-49
2022/01/10 04:24:55;;;;;;;;;55.50;43.25;;;;;;;;5100479;27;51597;-46
2022/01/10 04:27:40;;;;;;;;;60.00;44.25;;;;;;;;5099909;27;51290;-50
2022/01/10 04:30:24;;;;;;;;;60.50;47.50;;;;;;;;5100105;27;51024;-45
2022/01/10 04:33:10;;;;;;;;;61.25;47.00;;;;;;;;5099950;27;51434;-47
2022/01/10 04:35:54;;;;;;;;;61.00;46.50;;;;;;;;5100182;27;52282;-47
2022/01/10 04:38:42;;;;;;;;;56.50;45.00;;;;;;;;5099880;27;51123;-49
2022/01/10 04:41:26;;;;;;;;;64.25;48.00;;;;;;;;5099991;27;51146;-47
2022/01/10 04:44:11;;;;;;;;;60.25;47.75;;;;;;;;5099887;27;51352;-47
2022/01/10 04:46:55;;;;;;;;;61.50;44.75;;;;;;;;5100025;27;51077;-46
2022/01/10 04:52:33;;;;;;;;;60.25;45.75;;;;;;;;5099534;27;51034;-48
2022/01/10 04:55:17;;;;;;;;;65.50;48.25;;;;;;;;5100427;27;51133;-47
2022/01/10 04:58:01;;;;;;;;;61.25;46.75;;;;;;;;5083936;27;50951;-50
2022/01/10 05:00:46;;;;;;;;;60.50;45.50;;;;;;;;5098792;27;51098;-48
2022/01/10 05:03:30;;;;;;;;;60.50;45.75;;;;;;;;5099617;27;51712;-48
2022/01/10 05:06:16;;;;;;;;;62.00;46.75;;;;;;;;5100050;27;51470;-48
2022/01/10 05:09:00;;;;;;;;;55.50;44.50;;;;;;;;5099651;27;51405;-49
2022/01/10 05:11:45;;;;;;;;;60.00;47.25;;;;;;;;5084219;27;51110;-47
2022/01/10 05:14:31;;;;;;;;;56.25;45.50;;;;;;;;5103887;27;51559;-47
2022/01/10 05:17:18;;;;;;;;;57.75;44.75;;;;;;;;5103864;27;51082;-45
2022/01/10 05:20:03;;;;;;;;;59.75;45.75;;;;;;;;5104024;27;51165;-45
2022/01/10 05:22:47;;;;;;;;;63.00;46.75;;;;;;;;5103301;27;51944;-46
2022/01/10 05:25:36;;;;;;;;;57.00;44.50;;;;;;;;5103491;27;51161;-49
2022/01/10 05:28:21;;;;;;;;;58.50;44.50;;;;;;;;5103725;27;51107;-45
2022/01/10 05:31:05;;;;;;;;;58.00;46.50;;;;;;;;5103602;27;51110;-50
2022/01/10 05:33:49;;;;;;;;;66.25;50.25;;;;;;;;5103358;27;51055;-47
2022/01/10 05:36:34;;;;;;;;;59.75;46.50;;;;;;;;5103271;27;51104;-49
2022/01/10 05:39:18;;;;;;;;;58.50;46.00;;;;;;;;5103631;27;51583;-49
2022/01/10 05:42:03;;;;;;;;;54.25;44.75;;;;;;;;5103211;27;51038;-51
2022/01/10 05:44:47;;;;;;;;;57.50;45.00;;;;;;;;5103524;27;51238;-49
2022/01/10 05:47:38;;;;;;;;;56.00;44.00;;;;;;;;5102967;27;51339;-49
2022/01/10 05:50:33;;;;;;;;;55.00;44.00;;;;;;;;5103301;27;51244;-47
2022/01/10 05:53:18;;;;;;;;;57.50;46.00;;;;;;;;5103497;27;51559;-51
2022/01/10 05:56:02;;;;;;;;;57.50;43.00;;;;;;;;5103007;27;51146;-49
2022/01/10 05:58:47;;;;;;;;;52.50;44.00;;;;;;;;5102600;27;51410;-47
2022/01/10 06:01:31;;;;;;;;;63.50;46.50;;;;;;;;5102902;27;50945;-46
2022/01/10 06:04:15;;;;;;;;;56.00;45.50;;;;;;;;5103141;27;51644;-49
2022/01/10 06:07:00;;;;;;;;;60.00;46.25;;;;;;;;5102587;27;51075;-48
2022/01/10 06:09:44;;;;;;;;;63.00;49.00;;;;;;;;5102894;27;51035;-49
2022/01/10 06:12:28;;;;;;;;;65.75;50.50;;;;;;;;5102623;27;51170;-48
2022/01/10 06:15:13;;;;;;;;;64.50;52.00;;;;;;;;5102696;27;51011;-46
2022/01/10 06:17:57;;;;;;;;;68.75;52.00;;;;;;;;5102548;27;51713;-47
2022/01/10 06:20:42;;;;;;;;;67.50;52.25;;;;;;;;5082851;27;51148;-48
2022/01/10 06:23:26;;;;;;;;;70.50;54.25;;;;;;;;5083246;27;51559;-46
2022/01/10 06:26:11;;;;;;;;;69.50;56.25;;;;;;;;5081938;27;50997;-46
2022/01/10 06:28:55;;;;;;;;;68.50;53.50;;;;;;;;5081647;27;51741;-47
2022/01/10 06:31:40;;;;;;;;;68.00;52.75;;;;;;;;5081671;27;51226;-47
2022/01/10 06:34:24;;;;;;;;;66.75;50.25;;;;;;;;5098023;27;52042;-47
2022/01/10 06:37:09;;;;;;;;;67.50;52.50;;;;;;;;5097308;27;51098;-46
2022/01/10 06:39:53;;;;;;;;;66.00;50.75;;;;;;;;5081451;27;51134;-49
2022/01/10 06:42:37;;;;;;;;;68.25;51.50;;;;;;;;5081635;27;51111;-47
2022/01/10 06:45:22;;;;;;;;;66.00;50.25;;;;;;;;5083652;27;51048;-46
2022/01/10 06:48:06;;;;;;;;;68.00;52.75;;;;;;;;5101004;27;51047;-51
2022/01/10 06:50:50;;;;;;;;;70.25;56.00;;;;;;;;5101742;27;51118;-48
2022/01/10 06:53:35;;;;;;;;;62.75;49.50;;;;;;;;5102120;27;51071;-48
2022/01/10 06:56:19;;;;;;;;;71.25;52.75;;;;;;;;5101938;27;51067;-44
2022/01/10 06:59:04;;;;;;;;;67.75;53.25;;;;;;;;5101885;27;50985;-49
2022/01/10 07:01:48;;;;;;;;;74.25;59.25;;;;;;;;5101652;27;51434;-50
2022/01/10 07:04:32;;;;;;;;;71.75;58.50;;;;;;;;5101815;27;51161;-47
2022/01/10 07:07:17;;;;;;;;;73.75;64.50;;;;;;;;5101666;27;50980;-49
2022/01/10 07:10:01;;;;;;;;;71.75;60.25;;;;;;;;5098762;27;51196;-49
2022/01/10 07:12:46;;;;;;;;;72.00;56.50;;;;;;;;5080927;27;51539;-49
2022/01/10 07:15:30;;;;;;;;;75.75;62.25;;;;;;;;5096527;27;51170;-46
2022/01/10 07:18:14;;;;;;;;;75.25;62.50;;;;;;;;5101454;27;51118;-49
2022/01/10 07:20:59;;;;;;;;;72.00;59.25;;;;;;;;5101061;27;51047;-46
2022/01/10 07:23:43;;;;;;;;;65.00;52.00;;;;;;;;5101505;27;51032;-46
2022/01/10 07:26:28;;;;;;;;;65.50;51.75;;;;;;;;5101387;27;51581;-46
2022/01/10 07:29:12;;;;;;;;;73.00;60.25;;;;;;;;5100882;27;51161;-48
2022/01/10 07:31:57;;;;;;;;;71.75;59.25;;;;;;;;5100335;27;51149;-47
2022/01/10 07:34:41;;;;;;;;;68.75;53.25;;;;;;;;5101416;27;51031;-50
2022/01/10 07:37:26;;;;;;;;;70.25;55.50;;;;;;;;5101173;27;51445;-48
2022/01/10 07:40:10;;;;;;;;;66.25;51.50;;;;;;;;5100765;27;51079;-49
2022/01/10 07:42:54;;;;;;;;;68.50;53.25;;;;;;;;5101291;27;51233;-49
2022/01/10 07:45:39;;;;;;;;;68.25;50.75;;;;;;;;5101024;27;51040;-47
2022/01/10 07:48:24;;;;;;;;;66.25;51.75;;;;;;;;5101172;27;51185;-48
2022/01/10 07:51:11;;;;;;;;;65.75;50.75;;;;;;;;5082111;27;51159;-49
2022/01/10 07:53:55;;;;;;;;;62.00;49.50;;;;;;;;5080526;27;51248;-46
2022/01/10 07:56:40;;;;;;;;;67.25;51.50;;;;;;;;5079186;27;51105;-49
2022/01/10 07:59:24;;;;;;;;;64.50;51.50;;;;;;;;5100647;27;51157;-50
2022/01/10 08:02:09;;;;;;;;;65.00;51.75;;;;;;;;5100242;27;51425;-46
2022/01/10 08:04:53;;;;;;;;;67.00;51.75;;;;;;;;5100472;27;51226;-47
2022/01/10 08:07:38;;;;;;;;;66.00;49.50;;;;;;;;5100614;27;51165;-49
2022/01/10 08:10:22;;;;;;;;;66.00;52.00;;;;;;;;5100370;27;52248;-49
2022/01/10 08:13:07;;;;;;;;;67.00;54.00;;;;;;;;5100465;27;51091;-49
2022/01/10 08:15:52;;;;;;;;;63.25;50.25;;;;;;;;5100178;27;51127;-47
2022/01/10 08:18:36;;;;;;;;;59.25;44.50;;;;;;;;5085983;27;51109;-50
2022/01/10 08:21:21;;;;;;;;;59.00;46.75;;;;;;;;5079611;27;51064;-48
2022/01/10 08:24:05;;;;;;;;;56.50;44.75;;;;;;;;5089787;27;51083;-47
2022/01/10 08:26:50;;;;;;;;;52.75;42.25;;;;;;;;5100187;27;51484;-54
2022/01/10 08:29:34;;;;;;;;;62.00;45.75;;;;;;;;5079604;27;51193;-51
2022/01/10 08:47:51;;;;;;;;;47.50;38.00;;;;;;;;4358157;32;51112;-46
2022/01/10 08:50:35;;;;;;;;;52.50;43.50;;;;;;;;5097263;27;51065;-52
2022/01/10 08:53:20;;;;;;;;;51.75;41.00;;;;;;;;5096406;27;51164;-44
2022/01/10 08:56:04;;;;;;;;;51.25;40.25;;;;;;;;5098303;27;51156;-47
2022/01/10 08:58:48;;;;;;;;;56.50;44.50;;;;;;;;5099055;27;51972;-49
2022/01/10 09:01:34;;;;;;;;;54.00;42.75;;;;;;;;5096435;27;51117;-47
2022/01/10 09:04:18;;;;;;;;;57.75;44.00;;;;;;;;5096772;27;51194;-50
2022/01/10 09:07:03;;;;;;;;;56.00;43.25;;;;;;;;5100305;27;51038;-46
2022/01/10 09:09:47;;;;;;;;;55.00;43.00;;;;;;;;5096127;27;51697;-47
2022/01/10 09:12:32;;;;;;;;;56.25;42.75;;;;;;;;5101984;27;51430;-47
2022/01/10 09:15:17;;;;;;;;;53.75;41.00;;;;;;;;5095521;27;51215;-48
2022/01/10 09:18:01;;;;;;;;;55.50;41.25;;;;;;;;5099792;27;51419;-46
2022/01/10 09:20:45;;;;;;;;;48.75;40.25;;;;;;;;5102176;27;51061;-49
2022/01/10 09:23:30;;;;;;;;;48.75;37.75;;;;;;;;5099789;27;51133;-45
2022/01/10 09:26:14;;;;;;;;;53.75;42.00;;;;;;;;5103397;27;51137;-49
2022/01/10 09:28:59;;;;;;;;;52.25;40.25;;;;;;;;5099645;27;51111;-48
2022/01/10 09:31:44;;;;;;;;;52.00;41.75;;;;;;;;5097095;27;51777;-49
2022/01/10 09:34:28;;;;;;;;;53.50;40.75;;;;;;;;5083074;27;51249;-44
2022/01/10 09:37:12;;;;;;;;;45.00;37.25;;;;;;;;5095125;27;51050;-48
2022/01/10 09:39:57;;;;;;;;;50.50;39.25;;;;;;;;5101684;27;51106;-45
2022/01/10 09:42:41;;;;;;;;;47.50;37.25;;;;;;;;5098079;27;51408;-45
2022/01/10 09:45:26;;;;;;;;;47.00;36.75;;;;;;;;5095511;27;51091;-48
2022/01/10 09:48:10;;;;;;;;;48.00;38.25;;;;;;;;5092917;27;51991;-47
2022/01/10 09:50:54;;;;;;;;;48.25;39.00;;;;;;;;5101655;27;51122;-47
2022/01/10 09:53:39;;;;;;;;;44.00;33.25;;;;;;;;5101587;27;51076;-46
2022/01/10 09:56:24;;;;;;;;;57.50;42.25;;;;;;;;5081938;27;51420;-48
2022/01/10 09:59:08;;;;;;;;;50.25;38.75;;;;;;;;5088867;27;51401;-47
2022/01/10 10:01:53;;;;;;;;;48.00;37.75;;;;;;;;5102527;27;51212;-45
2022/01/10 10:04:37;;;;;;;;;45.75;35.25;;;;;;;;5097070;27;51045;-48
2022/01/10 10:07:25;;;;;;;;;46.00;38.00;;;;;;;;5082019;27;51114;-48
2022/01/10 10:10:13;;;;;;;;;45.25;37.00;;;;;;;;5081190;27;51131;-45
2022/01/10 10:12:57;;;;;;;;;43.75;35.25;;;;;;;;5068753;27;51714;-47
2022/01/10 10:15:44;;;;;;;;;41.25;33.50;;;;;;;;5099556;27;51093;-48
2022/01/10 10:18:29;;;;;;;;;45.25;35.25;;;;;;;;5102264;27;51108;-43
2022/01/10 10:21:17;;;;;;;;;42.00;31.25;;;;;;;;5101725;27;51480;-46
2022/01/10 10:24:04;;;;;;;;;39.25;30.25;;;;;;;;5089426;27;51608;-51
2022/01/10 10:26:49;;;;;;;;;42.50;34.50;;;;;;;;5100326;27;51093;-47
2022/01/10 10:29:33;;;;;;;;;43.25;35.25;;;;;;;;5101960;27;51205;-51
2022/01/10 10:32:17;;;;;;;;;44.00;34.75;;;;;;;;5083361;27;51419;-52
2022/01/10 10:35:03;;;;;;;;;45.25;35.75;;;;;;;;5081111;27;51219;-50
2022/01/10 10:37:48;;;;;;;;;46.00;36.50;;;;;;;;5080988;27;51531;-48
2022/01/10 10:40:38;;;;;;;;;44.00;36.25;;;;;;;;5080625;27;50997;-48
2022/01/10 10:43:23;;;;;;;;;46.50;36.25;;;;;;;;5081584;27;51095;-49
2022/01/10 10:46:12;;;;;;;;;42.25;35.25;;;;;;;;5085205;27;51017;-44
2022/01/10 10:49:03;;;;;;;;;44.00;36.50;;;;;;;;5100967;27;51705;-52
2022/01/10 10:51:49;;;;;;;;;47.75;36.50;;;;;;;;5101338;27;51247;-48
2022/01/10 10:54:34;;;;;;;;;43.75;36.50;;;;;;;;5101956;27;51175;-45
2022/01/10 10:57:19;;;;;;;;;24.50;24.25;;;;;;;;5101049;27;51395;-48
2022/01/10 11:00:08;;;;;;;;;42.50;32.00;;;;;;;;5099347;27;51514;-50
2022/01/10 11:02:52;;;;;;;;;41.75;34.00;;;;;;;;5101279;27;51151;-46
2022/01/10 11:05:37;;;;;;;;;42.25;35.25;;;;;;;;5101340;27;51072;-53
2022/01/10 11:08:22;;;;;;;;;45.25;35.50;;;;;;;;5101223;27;51146;-48
2022/01/10 11:11:06;;;;;;;;;44.00;34.00;;;;;;;;5100965;27;51469;-48
2022/01/10 11:13:55;;;;;;;;;40.00;31.75;;;;;;;;5101286;27;51531;-51
2022/01/10 11:16:41;;;;;;;;;42.75;33.50;;;;;;;;5095999;27;51279;-52
2022/01/10 11:19:26;;;;;;;;;43.50;35.75;;;;;;;;5080680;27;51141;-47
2022/01/10 11:22:11;;;;;;;;;42.00;34.00;;;;;;;;5079715;27;51138;-47
2022/01/10 11:24:56;;;;;;;;;46.50;35.00;;;;;;;;5080282;27;51120;-50
2022/01/10 11:27:44;;;;;;;;;48.00;36.75;;;;;;;;5080871;27;51114;-46
2022/01/10 11:30:36;;;;;;;;;44.50;36.25;;;;;;;;5079482;27;51158;-49
2022/01/10 11:33:22;;;;;;;;;44.75;35.50;;;;;;;;5080046;27;51057;-47
2022/01/10 11:36:08;;;;;;;;;48.00;37.50;;;;;;;;5078821;27;51194;-46
2022/01/10 11:38:54;;;;;;;;;40.00;31.25;;;;;;;;5080241;27;51074;-48
2022/01/10 11:41:38;;;;;;;;;41.75;32.00;;;;;;;;5096850;27;51062;-48
2022/01/10 11:44:23;;;;;;;;;42.25;36.00;;;;;;;;5080051;27;51160;-48
2022/01/10 11:47:08;;;;;;;;;41.75;33.75;;;;;;;;5079676;27;51444;-48
2022/01/10 11:50:12;;;;;;;;;41.25;33.25;;;;;;;;5079590;27;51101;-51
2022/01/10 11:52:56;;;;;;;;;46.25;34.75;;;;;;;;5079521;27;51106;-45
2022/01/10 11:55:54;;;;;;;;;46.75;35.50;;;;;;;;5079406;27;51310;-46
2022/01/10 11:58:39;;;;;;;;;44.25;36.50;;;;;;;;5096290;27;51339;-45
2022/01/10 12:01:31;;;;;;;;;42.50;33.50;;;;;;;;5099084;27;51008;-46
2022/01/10 12:04:16;;;;;;;;;44.00;35.75;;;;;;;;5099717;27;51753;-46
2022/01/10 12:07:01;;;;;;;;;46.75;37.00;;;;;;;;5099828;27;51120;-44
2022/01/10 12:09:46;;;;;;;;;45.00;36.75;;;;;;;;5091032;27;51167;-45
2022/01/10 12:12:32;;;;;;;;;48.25;37.75;;;;;;;;5098404;27;51420;-46
2022/01/10 12:15:16;;;;;;;;;42.25;34.50;;;;;;;;5099861;27;51123;-44
2022/01/10 12:18:01;;;;;;;;;45.00;36.25;;;;;;;;5099938;27;51563;-47
2022/01/10 12:20:51;;;;;;;;;43.50;35.00;;;;;;;;5096014;27;51030;-44
2022/01/10 12:23:35;;;;;;;;;45.50;35.25;;;;;;;;5080428;27;51015;-44
2022/01/10 12:26:20;;;;;;;;;43.00;36.25;;;;;;;;5078315;27;51455;-46
2022/01/10 12:29:05;;;;;;;;;46.50;35.50;;;;;;;;5083021;27;51696;-44
2022/01/10 12:31:49;;;;;;;;;45.25;37.25;;;;;;;;5098839;27;51104;-47
2022/01/10 12:34:34;;;;;;;;;48.00;36.50;;;;;;;;5099343;27;51057;-41
2022/01/10 12:37:18;;;;;;;;;45.75;36.00;;;;;;;;5071701;27;51203;-46
2022/01/10 12:40:03;;;;;;;;;24.25;17.00;;;;;;;;5099176;27;51188;-45
2022/01/10 12:42:49;;;;;;;;;40.25;33.50;;;;;;;;5099603;27;51653;-46
2022/01/10 12:45:33;;;;;;;;;44.50;33.50;;;;;;;;5092438;27;51431;-44
2022/01/10 12:48:18;;;;;;;;;45.50;35.50;;;;;;;;5067034;27;51136;-45
2022/01/10 12:51:05;;;;;;;;;46.50;36.75;;;;;;;;5080400;27;51353;-42
2022/01/10 12:53:51;;;;;;;;;43.00;33.50;;;;;;;;5086452;27;51148;-45
2022/01/10 12:56:35;;;;;;;;;43.00;31.75;;;;;;;;5086244;27;51190;-45
2022/01/10 12:59:21;;;;;;;;;48.50;36.75;;;;;;;;4980558;28;51201;-46
2022/01/10 13:02:06;;;;;;;;;44.00;35.75;;;;;;;;5018111;28;51101;-45
2022/01/10 13:04:50;;;;;;;;;33.50;30.50;;;;;;;;5015524;28;51146;-44
2022/01/10 13:07:36;;;;;;;;;43.75;35.00;;;;;;;;5018404;28;51111;-43
2022/01/10 13:10:29;;;;;;;;;44.50;33.25;;;;;;;;5014183;28;53092;-45
2022/01/10 13:13:16;;;;;;;;;38.25;32.75;;;;;;;;5018096;28;51152;-45
2022/01/10 13:16:00;;;;;;;;;46.25;36.25;;;;;;;;5017878;28;51131;-46
2022/01/10 13:18:53;;;;;;;;;42.50;32.50;;;;;;;;5018812;28;51148;-43
2022/01/10 13:21:40;;;;;;;;;37.50;32.00;;;;;;;;5018663;28;51100;-45
2022/01/10 13:24:25;;;;;;;;;42.25;35.00;;;;;;;;5020625;28;51141;-46
2022/01/10 13:27:18;;;;;;;;;43.75;33.75;;;;;;;;5011633;28;51425;-44
2022/01/10 13:30:13;;;;;;;;;42.00;34.50;;;;;;;;5001780;28;51195;-44
2022/01/10 13:33:04;;;;;;;;;39.25;32.50;;;;;;;;5019577;28;51650;-44
2022/01/10 13:35:57;;;;;;;;;39.75;33.50;;;;;;;;5021300;28;51055;-45
2022/01/10 13:38:41;;;;;;;;;38.75;32.75;;;;;;;;5008611;28;51157;-46
2022/01/10 13:41:26;;;;;;;;;36.25;30.25;;;;;;;;5001396;28;51220;-46
2022/01/10 13:44:10;;;;;;;;;39.50;32.75;;;;;;;;5009849;28;53470;-47
2022/01/10 13:47:02;;;;;;;;;44.25;34.50;;;;;;;;5021765;28;51100;-48
2022/01/10 13:49:47;;;;;;;;;38.50;33.50;;;;;;;;5012600;28;51265;-43
2022/01/10 13:52:31;;;;;;;;;39.75;32.25;;;;;;;;5001854;28;51563;-44
2022/01/10 13:55:16;;;;;;;;;37.00;28.00;;;;;;;;5001754;28;51162;-45
2022/01/10 13:58:00;;;;;;;;;47.25;34.25;;;;;;;;5021526;28;51174;-46
2022/01/10 14:00:51;;;;;;;;;34.75;29.25;;;;;;;;5020870;28;51471;-47
2022/01/10 14:03:35;;;;;;;;;39.00;30.25;;;;;;;;5021222;28;51014;-48
2022/01/10 14:06:22;;;;;;;;;28.75;25.00;;;;;;;;5021117;28;51172;-48
2022/01/10 14:09:06;;;;;;;;;38.50;29.50;;;;;;;;5021239;28;51397;-47
2022/01/10 14:11:51;;;;;;;;;39.00;29.25;;;;;;;;5020853;28;51093;-48
2022/01/10 14:14:36;;;;;;;;;39.25;31.00;;;;;;;;5021292;28;51186;-43
2022/01/10 14:17:20;;;;;;;;;43.25;32.25;;;;;;;;5021058;28;51123;-46
2022/01/10 14:20:05;;;;;;;;;41.25;30.25;;;;;;;;5021231;28;51147;-43
2022/01/10 14:22:50;;;;;;;;;33.50;28.25;;;;;;;;5021261;28;51187;-45
2022/01/10 14:25:35;;;;;;;;;36.50;31.25;;;;;;;;5020382;28;51192;-46
2022/01/10 14:28:19;;;;;;;;;24.50;23.00;;;;;;;;5020844;28;51280;-44
2022/01/10 14:31:05;;;;;;;;;35.75;30.25;;;;;;;;5020776;28;51103;-47
2022/01/10 14:33:49;;;;;;;;;40.25;31.75;;;;;;;;5020600;28;51143;-46
2022/01/10 14:36:34;;;;;;;;;37.00;29.50;;;;;;;;5020449;28;51159;-47
2022/01/10 14:39:18;;;;;;;;;40.75;31.50;;;;;;;;5020792;28;51385;-44
2022/01/10 14:42:03;;;;;;;;;34.00;30.00;;;;;;;;5020230;28;51187;-46
2022/01/10 14:44:47;;;;;;;;;30.00;27.25;;;;;;;;5020784;28;51000;-47
2022/01/10 14:47:32;;;;;;;;;33.50;28.75;;;;;;;;5001543;28;51102;-43
2022/01/10 14:50:17;;;;;;;;;31.50;28.50;;;;;;;;5019677;28;51448;-44
2022/01/10 14:53:01;;;;;;;;;33.75;27.25;;;;;;;;5020367;28;51137;-45
2022/01/10 14:55:48;;;;;;;;;34.75;28.50;;;;;;;;5020351;28;51629;-46
2022/01/10 14:58:32;;;;;;;;;29.75;22.75;;;;;;;;5019961;28;51624;-51
2022/01/10 15:01:16;;;;;;;;;27.50;26.75;;;;;;;;5019632;28;51174;-48
2022/01/10 15:04:00;;;;;;;;;27.00;23.75;;;;;;;;5020281;28;51163;-45
2022/01/10 15:06:45;;;;;;;;;33.00;28.00;;;;;;;;5019555;28;51428;-47
2022/01/10 15:09:29;;;;;;;;;31.00;26.50;;;;;;;;5019527;28;51209;-44
2022/01/10 15:12:14;;;;;;;;;36.00;29.75;;;;;;;;5011820;28;51692;-45
2022/01/10 15:15:01;;;;;;;;;30.75;28.50;;;;;;;;5015319;28;51173;-45
2022/01/10 15:17:46;;;;;;;;;29.75;28.00;;;;;;;;5019632;28;51091;-46
2022/01/10 15:20:30;;;;;;;;;29.25;25.75;;;;;;;;5019484;28;51183;-45
2022/01/10 15:23:14;;;;;;;;;33.25;28.75;;;;;;;;5019608;28;52002;-46
2022/01/10 15:25:59;;;;;;;;;30.50;24.25;;;;;;;;5009217;28;51101;-46
2022/01/10 15:28:44;;;;;;;;;24.75;19.25;;;;;;;;5013352;28;51063;-47
2022/01/10 15:31:28;;;;;;;;;37.00;27.50;;;;;;;;5005430;28;51325;-46
2022/01/10 15:34:13;;;;;;;;;26.75;23.25;;;;;;;;5018365;28;51345;-45
2022/01/10 15:36:57;;;;;;;;;29.75;28.00;;;;;;;;5018753;28;51637;-42
2022/01/10 15:39:42;;;;;;;;;37.75;26.50;;;;;;;;5018810;28;51192;-48
2022/01/10 15:42:26;;;;;;;;;31.75;25.00;;;;;;;;5018951;28;51147;-47
2022/01/10 15:45:12;;;;;;;;;36.00;27.75;;;;;;;;5018628;28;51060;-43
2022/01/10 15:47:56;;;;;;;;;36.50;27.00;;;;;;;;5019426;28;51188;-48
2022/01/10 15:50:40;;;;;;;;;34.00;24.25;;;;;;;;5019524;28;51093;-48
2022/01/10 15:53:25;;;;;;;;;30.50;28.00;;;;;;;;5019061;28;51174;-45
2022/01/10 15:56:09;;;;;;;;;36.25;28.25;;;;;;;;5019061;28;51101;-44
2022/01/10 15:58:54;;;;;;;;;24.50;18.75;;;;;;;;5019475;28;51190;-44
2022/01/10 16:01:38;;;;;;;;;35.00;27.00;;;;;;;;5019174;28;51566;-44
2022/01/10 16:04:22;;;;;;;;;39.75;29.75;;;;;;;;5019437;28;51166;-42
2022/01/10 16:07:07;;;;;;;;;36.75;29.25;;;;;;;;5016747;28;51365;-45
2022/01/10 16:09:51;;;;;;;;;40.50;31.00;;;;;;;;4999799;28;51155;-48
2022/01/10 16:12:36;;;;;;;;;41.75;31.50;;;;;;;;5015371;28;51114;-47
2022/01/10 16:15:22;;;;;;;;;36.50;31.00;;;;;;;;5018893;28;51575;-43
2022/01/10 16:18:07;;;;;;;;;40.00;31.75;;;;;;;;5019261;28;51073;-43
2022/01/10 16:20:52;;;;;;;;;38.75;32.00;;;;;;;;5019212;28;51423;-48
2022/01/10 16:23:37;;;;;;;;;37.50;30.00;;;;;;;;5019208;28;51082;-43
2022/01/10 16:26:21;;;;;;;;;37.00;29.75;;;;;;;;5019075;28;51096;-47